Jeanerette, Louisiana
Current Conditions -  °F | °C
As of 2:53 PM on Friday 24 Oct 2014 (Local Time) from KARA Reporting Station
Clear Clear  
Wind Chill: 77°   Ceiling: Unl
Heat Index: 78°   Visibility: 10mi
Dew Point: 47°   Wind: 8mph
Humidity: 34%   Direction: 360°N
Pressure: 30.07"   Gusts: NA
Location:  29.91°N, 91.66°W
Report Text: KARA 241953Z 36007KT 10SM CLR 25/08 A3007 RMK AO2 SLP182 T02500083
Loading
Personal Weather Stations






























Interactive Weather Map New forecast layout! Learn more

10-Day Weather Forecast

Advertisements
Track Severe Weather on mobile